createdAt,value
2017-03-22T00:00:21.968Z,0
2017-03-22T00:01:02.834Z,0
2017-03-22T00:01:43.715Z,0
2017-03-22T00:02:24.599Z,0
2017-03-22T00:03:05.500Z,0
2017-03-22T00:03:46.370Z,0
2017-03-22T00:04:27.252Z,0
2017-03-22T00:05:08.353Z,0
2017-03-22T00:05:49.198Z,0
2017-03-22T00:06:30.095Z,0
2017-03-22T00:07:10.968Z,0
2017-03-22T00:07:51.846Z,0
2017-03-22T00:08:32.731Z,0
2017-03-22T00:09:13.620Z,0
2017-03-22T00:09:54.527Z,0
2017-03-22T00:10:35.453Z,0
2017-03-22T00:11:16.353Z,0
2017-03-22T00:11:57.201Z,0
2017-03-22T00:12:38.089Z,0
2017-03-22T00:13:18.973Z,0
2017-03-22T00:13:59.849Z,0
2017-03-22T00:14:40.754Z,0
2017-03-22T00:15:21.654Z,0
2017-03-22T00:16:02.527Z,0
2017-03-22T00:16:43.405Z,0
2017-03-22T00:17:24.295Z,0
2017-03-22T00:18:05.187Z,0
2017-03-22T00:18:46.067Z,0
2017-03-22T00:19:26.998Z,0
2017-03-22T00:20:07.900Z,0
2017-03-22T00:20:48.783Z,0
2017-03-22T00:21:29.673Z,0
2017-03-22T00:22:10.555Z,0
2017-03-22T00:22:51.436Z,0
2017-03-22T00:23:32.322Z,0
2017-03-22T00:24:13.217Z,0
2017-03-22T00:24:54.095Z,0
2017-03-22T00:25:34.966Z,0
2017-03-22T00:26:15.851Z,0
2017-03-22T00:26:56.741Z,0
2017-03-22T00:27:37.621Z,0
2017-03-22T00:28:18.502Z,0
2017-03-22T00:28:59.591Z,0
2017-03-22T00:29:40.669Z,0
2017-03-22T00:30:21.550Z,0
2017-03-22T00:31:02.640Z,0
2017-03-22T00:31:43.858Z,0
2017-03-22T00:32:24.742Z,0
2017-03-22T00:33:05.624Z,0
2017-03-22T00:33:46.515Z,0
2017-03-22T00:34:27.412Z,0
2017-03-22T00:35:08.283Z,0
2017-03-22T00:35:49.166Z,0
2017-03-22T00:36:30.049Z,0
2017-03-22T00:37:10.956Z,0
2017-03-22T00:37:51.843Z,0
2017-03-22T00:38:32.735Z,0
2017-03-22T00:39:13.621Z,0
2017-03-22T00:39:54.491Z,0
2017-03-22T00:40:35.376Z,0
2017-03-22T00:41:16.259Z,0
2017-03-22T00:41:57.465Z,0
2017-03-22T00:42:38.348Z,0
2017-03-22T00:43:19.391Z,0
2017-03-22T00:44:00.273Z,0
2017-03-22T00:44:41.160Z,0
2017-03-22T00:45:22.047Z,0
2017-03-22T00:46:02.933Z,0
2017-03-22T00:46:43.811Z,0
2017-03-22T00:47:24.694Z,0
2017-03-22T00:48:05.584Z,0
2017-03-22T00:48:46.947Z,0
2017-03-22T00:49:28.770Z,0
2017-03-22T00:50:10.365Z,0
2017-03-22T00:50:51.315Z,0
2017-03-22T00:51:32.207Z,0
2017-03-22T00:52:13.099Z,0
2017-03-22T00:52:53.986Z,0
2017-03-22T00:53:34.862Z,0
2017-03-22T00:54:15.767Z,0
2017-03-22T00:54:56.675Z,0
2017-03-22T00:55:37.558Z,0
2017-03-22T00:56:18.454Z,0
2017-03-22T00:56:59.336Z,0
2017-03-22T00:57:40.216Z,0
2017-03-22T00:58:21.099Z,0
2017-03-22T00:59:01.980Z,0
2017-03-22T00:59:42.851Z,0
2017-03-22T01:00:23.729Z,0
2017-03-22T01:01:04.604Z,0
2017-03-22T01:01:45.506Z,0
2017-03-22T01:02:26.396Z,0
2017-03-22T01:03:07.279Z,0
2017-03-22T01:03:48.214Z,0
2017-03-22T01:04:29.094Z,0
2017-03-22T01:05:09.985Z,0
2017-03-22T01:05:50.863Z,0
2017-03-22T01:06:31.741Z,0
2017-03-22T01:07:13.332Z,0
2017-03-22T01:07:54.186Z,0
2017-03-22T01:08:35.069Z,0
2017-03-22T01:09:15.953Z,0
2017-03-22T01:09:56.834Z,0
2017-03-22T01:10:37.721Z,0
2017-03-22T01:11:18.613Z,0
2017-03-22T01:11:59.495Z,0
2017-03-22T01:12:40.373Z,0
2017-03-22T01:13:21.251Z,0
2017-03-22T01:14:02.206Z,0
2017-03-22T01:14:43.274Z,0
2017-03-22T01:15:24.159Z,0
2017-03-22T01:16:05.048Z,0
2017-03-22T01:16:45.929Z,0
2017-03-22T01:17:26.813Z,0
2017-03-22T01:18:07.729Z,0
2017-03-22T01:18:48.660Z,0
2017-03-22T01:19:29.544Z,0
2017-03-22T01:20:10.425Z,0
2017-03-22T01:20:51.303Z,0
2017-03-22T01:21:32.188Z,0
2017-03-22T01:22:13.080Z,0
2017-03-22T01:22:53.961Z,0
2017-03-22T01:23:34.837Z,0
2017-03-22T01:24:15.718Z,0
2017-03-22T01:24:56.607Z,0
2017-03-22T01:25:37.737Z,0
2017-03-22T01:26:18.623Z,0
2017-03-22T01:26:59.525Z,0
2017-03-22T01:27:40.394Z,0
2017-03-22T01:28:21.273Z,0
2017-03-22T01:29:02.233Z,0
2017-03-22T01:29:43.118Z,0
2017-03-22T01:30:24.005Z,0
2017-03-22T01:31:04.905Z,0
2017-03-22T01:31:45.771Z,0
2017-03-22T01:32:26.671Z,0
2017-03-22T01:33:07.549Z,0
2017-03-22T01:33:48.451Z,0
2017-03-22T01:34:29.341Z,0
2017-03-22T01:35:10.220Z,0
2017-03-22T01:35:51.094Z,0
2017-03-22T01:36:31.965Z,0
2017-03-22T01:37:12.850Z,0
2017-03-22T01:37:53.738Z,0
2017-03-22T01:38:34.624Z,0
2017-03-22T01:39:15.507Z,0
2017-03-22T01:39:56.393Z,0
2017-03-22T01:40:37.269Z,0
2017-03-22T01:41:18.150Z,0
2017-03-22T01:41:59.030Z,0
2017-03-22T01:42:39.909Z,0
2017-03-22T01:43:20.797Z,0
2017-03-22T01:44:01.682Z,0
2017-03-22T01:44:42.566Z,0
2017-03-22T01:45:23.437Z,0
2017-03-22T01:46:04.357Z,0
2017-03-22T01:46:45.197Z,0
2017-03-22T01:47:26.089Z,0
2017-03-22T01:48:06.965Z,0
2017-03-22T01:48:47.836Z,0
2017-03-22T01:49:28.767Z,0
2017-03-22T01:50:09.646Z,0
2017-03-22T01:50:50.522Z,0
2017-03-22T01:51:31.404Z,0
2017-03-22T01:52:12.291Z,0
2017-03-22T01:52:53.164Z,0
2017-03-22T01:53:34.051Z,0
2017-03-22T01:54:14.932Z,0
2017-03-22T01:54:55.816Z,0
2017-03-22T01:55:36.727Z,0
2017-03-22T01:56:17.580Z,0
2017-03-22T01:56:58.458Z,0
2017-03-22T01:57:39.353Z,0
2017-03-22T01:58:20.232Z,0
2017-03-22T01:59:01.115Z,0
2017-03-22T01:59:42.001Z,0
2017-03-22T02:00:22.886Z,0
2017-03-22T02:01:03.773Z,0
2017-03-22T02:01:44.663Z,0
2017-03-22T02:02:25.547Z,0
2017-03-22T02:03:06.431Z,0
2017-03-22T02:03:47.319Z,0
2017-03-22T02:04:28.201Z,0
2017-03-22T02:05:09.078Z,0
2017-03-22T02:05:49.974Z,0
2017-03-22T02:06:30.849Z,0
2017-03-22T02:07:11.730Z,0
2017-03-22T02:07:52.613Z,0
2017-03-22T02:08:33.502Z,0
2017-03-22T02:09:14.387Z,0
2017-03-22T02:09:55.268Z,0
2017-03-22T02:10:36.148Z,0
2017-03-22T02:11:17.035Z,0
2017-03-22T02:11:57.913Z,0
2017-03-22T02:12:38.804Z,0
2017-03-22T02:13:19.676Z,0
2017-03-22T02:14:00.565Z,0
2017-03-22T02:14:41.449Z,0
2017-03-22T02:15:22.329Z,0
2017-03-22T02:16:03.212Z,0
2017-03-22T02:16:44.096Z,0
2017-03-22T02:17:24.974Z,0
2017-03-22T02:18:05.861Z,0
2017-03-22T02:18:46.749Z,0
2017-03-22T02:19:27.633Z,0
2017-03-22T02:20:08.511Z,0
2017-03-22T02:20:49.390Z,0
2017-03-22T02:21:30.275Z,0
2017-03-22T02:22:11.159Z,0
2017-03-22T02:22:52.037Z,0
2017-03-22T02:23:32.930Z,0
2017-03-22T02:24:13.815Z,0
2017-03-22T02:24:54.693Z,0
2017-03-22T02:25:35.573Z,0
2017-03-22T02:26:16.458Z,0
2017-03-22T02:26:57.349Z,0
2017-03-22T02:27:38.236Z,0
2017-03-22T02:28:19.119Z,0
2017-03-22T02:28:59.999Z,0
2017-03-22T02:29:40.875Z,0
2017-03-22T02:30:21.775Z,0
2017-03-22T02:31:02.661Z,0
2017-03-22T02:31:43.533Z,0
2017-03-22T02:32:24.417Z,0
2017-03-22T02:33:05.301Z,0
2017-03-22T02:33:46.179Z,0
2017-03-22T02:34:27.067Z,0
2017-03-22T02:35:07.951Z,0
2017-03-22T02:35:48.851Z,0
2017-03-22T02:36:29.733Z,0
2017-03-22T02:37:10.623Z,0
2017-03-22T02:37:51.487Z,0
2017-03-22T02:38:32.367Z,0
2017-03-22T02:39:13.254Z,0
2017-03-22T02:39:54.135Z,0
2017-03-22T02:40:35.002Z,0
2017-03-22T02:41:15.889Z,0
2017-03-22T02:41:56.774Z,0
2017-03-22T02:42:37.664Z,0
2017-03-22T02:43:18.536Z,0
2017-03-22T02:43:59.424Z,0
2017-03-22T02:44:40.316Z,0
2017-03-22T02:45:21.189Z,0
2017-03-22T02:46:02.069Z,0
2017-03-22T02:46:42.954Z,0
2017-03-22T02:47:23.844Z,0
2017-03-22T02:48:04.729Z,0
2017-03-22T02:48:45.608Z,0
2017-03-22T02:49:26.489Z,0
2017-03-22T02:50:07.376Z,0
2017-03-22T02:50:48.265Z,0
2017-03-22T02:51:29.156Z,0
2017-03-22T02:52:10.030Z,0
2017-03-22T02:52:50.905Z,0
2017-03-22T02:53:31.795Z,0
2017-03-22T02:54:12.672Z,0
2017-03-22T02:54:53.544Z,0
2017-03-22T02:55:34.422Z,0
2017-03-22T02:56:15.305Z,0
2017-03-22T02:56:56.182Z,0
2017-03-22T02:57:37.064Z,0
2017-03-22T02:58:17.946Z,0
2017-03-22T02:58:58.836Z,0
2017-03-22T02:59:39.723Z,0
2017-03-22T03:00:20.606Z,0
2017-03-22T03:01:01.488Z,0
2017-03-22T03:01:42.368Z,0
2017-03-22T03:02:23.251Z,0
2017-03-22T03:03:04.138Z,0
2017-03-22T03:03:45.734Z,0
2017-03-22T03:04:26.623Z,0
2017-03-22T03:05:07.514Z,0
2017-03-22T03:05:48.391Z,0
2017-03-22T03:06:29.271Z,0
2017-03-22T03:07:10.162Z,0
2017-03-22T03:07:51.051Z,0
2017-03-22T03:08:31.934Z,0
2017-03-22T03:09:12.825Z,0
2017-03-22T03:09:53.726Z,0
2017-03-22T03:10:34.609Z,0
2017-03-22T03:11:15.481Z,0
2017-03-22T03:11:56.364Z,0
2017-03-22T03:12:37.259Z,0
2017-03-22T03:13:18.139Z,0
2017-03-22T03:13:59.023Z,0
2017-03-22T03:14:39.904Z,0
2017-03-22T03:15:20.799Z,0
2017-03-22T03:16:01.674Z,0
2017-03-22T03:16:42.557Z,0
2017-03-22T03:17:23.450Z,0
2017-03-22T03:18:04.350Z,0
2017-03-22T03:18:45.214Z,0
2017-03-22T03:19:26.097Z,0
2017-03-22T03:20:06.983Z,0
2017-03-22T03:20:47.864Z,0
2017-03-22T03:21:28.752Z,0
2017-03-22T03:22:09.639Z,0
2017-03-22T03:22:50.531Z,0
2017-03-22T03:23:31.407Z,0
2017-03-22T03:24:12.286Z,0
2017-03-22T03:24:53.166Z,0
2017-03-22T03:25:34.066Z,0
2017-03-22T03:26:14.942Z,0
2017-03-22T03:26:55.820Z,0
2017-03-22T03:27:36.704Z,0
2017-03-22T03:28:17.628Z,0
2017-03-22T03:28:58.514Z,0
2017-03-22T03:29:39.400Z,0
2017-03-22T03:30:20.316Z,0
2017-03-22T03:31:01.206Z,0
2017-03-22T03:31:42.090Z,0
2017-03-22T03:32:22.975Z,0
2017-03-22T03:33:03.860Z,0
2017-03-22T03:33:44.741Z,0
2017-03-22T03:34:25.636Z,0
2017-03-22T03:35:06.499Z,0
2017-03-22T03:35:47.385Z,0
2017-03-22T03:36:28.265Z,0
2017-03-22T03:37:09.152Z,0
2017-03-22T03:37:50.033Z,0
2017-03-22T03:38:30.906Z,0
2017-03-22T03:39:11.776Z,0
2017-03-22T03:39:52.659Z,0
2017-03-22T03:40:33.553Z,0
2017-03-22T03:41:14.429Z,0
2017-03-22T03:41:55.309Z,0
2017-03-22T03:42:36.200Z,0
2017-03-22T03:43:17.085Z,0
2017-03-22T03:43:57.964Z,0
2017-03-22T03:44:38.845Z,0
2017-03-22T03:45:19.731Z,0
2017-03-22T03:46:00.617Z,0
2017-03-22T03:46:41.499Z,0
2017-03-22T03:47:22.381Z,0
2017-03-22T03:48:03.272Z,0
2017-03-22T03:48:44.152Z,0
2017-03-22T03:49:25.038Z,0
2017-03-22T03:50:05.927Z,0
2017-03-22T03:50:46.808Z,0
2017-03-22T03:51:27.684Z,0
2017-03-22T03:52:08.565Z,0
2017-03-22T03:52:49.459Z,0
2017-03-22T03:53:30.347Z,0
2017-03-22T03:54:11.233Z,0
2017-03-22T03:54:52.116Z,0
2017-03-22T03:55:33.006Z,0
2017-03-22T03:56:13.893Z,0
2017-03-22T03:56:54.775Z,0
2017-03-22T03:57:35.652Z,0
2017-03-22T03:58:16.555Z,0
2017-03-22T03:58:57.440Z,0
2017-03-22T03:59:38.320Z,0
2017-03-22T04:00:19.204Z,0
2017-03-22T04:01:00.092Z,0
2017-03-22T04:01:40.967Z,0
2017-03-22T04:02:21.845Z,0
2017-03-22T04:03:02.732Z,0
2017-03-22T04:03:43.626Z,0
2017-03-22T04:04:24.514Z,0
2017-03-22T04:05:05.392Z,0
2017-03-22T04:05:46.273Z,0
2017-03-22T04:06:27.176Z,0
2017-03-22T04:07:08.088Z,0
2017-03-22T04:07:48.949Z,0
2017-03-22T04:08:29.837Z,0
2017-03-22T04:09:10.718Z,0
2017-03-22T04:09:51.628Z,0
2017-03-22T04:10:32.516Z,0
2017-03-22T04:11:13.395Z,0
2017-03-22T04:11:54.327Z,0
2017-03-22T04:12:35.165Z,0
2017-03-22T04:13:16.050Z,0
2017-03-22T04:13:56.933Z,0
2017-03-22T04:14:37.815Z,0
2017-03-22T04:15:18.695Z,0
2017-03-22T04:15:59.585Z,0
2017-03-22T04:16:40.459Z,0
2017-03-22T04:17:21.336Z,0
2017-03-22T04:18:02.222Z,0
2017-03-22T04:18:43.106Z,0
2017-03-22T04:19:23.989Z,0
2017-03-22T04:20:04.872Z,0
2017-03-22T04:20:45.754Z,0
2017-03-22T04:21:26.639Z,0
2017-03-22T04:22:07.521Z,0
2017-03-22T04:22:48.404Z,0
2017-03-22T04:23:29.286Z,0
2017-03-22T04:24:10.167Z,0
2017-03-22T04:24:51.046Z,0
2017-03-22T04:25:31.922Z,0
2017-03-22T04:26:12.813Z,0
2017-03-22T04:26:53.700Z,0
2017-03-22T04:27:34.582Z,0
2017-03-22T04:28:15.462Z,0
2017-03-22T04:28:56.361Z,0
2017-03-22T04:29:37.243Z,0
2017-03-22T04:30:18.126Z,0
2017-03-22T04:30:59.007Z,0
2017-03-22T04:31:39.890Z,0
2017-03-22T04:32:20.771Z,0
2017-03-22T04:33:01.656Z,4
2017-03-22T04:33:42.536Z,0
2017-03-22T04:34:23.420Z,4
2017-03-22T04:35:04.306Z,4
2017-03-22T04:35:45.185Z,4
2017-03-22T04:36:26.068Z,4
2017-03-22T04:37:06.944Z,4
2017-03-22T04:37:47.835Z,0
2017-03-22T04:38:28.719Z,4
2017-03-22T04:39:09.603Z,4
2017-03-22T04:39:50.480Z,4
2017-03-22T04:40:31.366Z,8
2017-03-22T04:41:12.249Z,4
2017-03-22T04:41:53.134Z,8
2017-03-22T04:42:34.021Z,8
2017-03-22T04:43:14.908Z,8
2017-03-22T04:43:55.786Z,8
2017-03-22T04:44:36.671Z,8
2017-03-22T04:45:17.586Z,8
2017-03-22T04:45:58.473Z,12
2017-03-22T04:46:39.351Z,12
2017-03-22T04:47:20.279Z,16
2017-03-22T04:48:01.160Z,16
2017-03-22T04:48:42.047Z,16
2017-03-22T04:49:22.934Z,16
2017-03-22T04:50:03.819Z,20
2017-03-22T04:50:44.711Z,20
2017-03-22T04:51:25.608Z,24
2017-03-22T04:52:06.490Z,28
2017-03-22T04:52:47.370Z,28
2017-03-22T04:53:28.255Z,32
2017-03-22T04:54:09.141Z,32
2017-03-22T04:54:50.019Z,40
2017-03-22T04:55:30.894Z,40
2017-03-22T04:56:11.778Z,44
2017-03-22T04:56:52.690Z,48
2017-03-22T04:57:33.551Z,52
2017-03-22T04:58:14.430Z,60
2017-03-22T04:58:55.319Z,64
2017-03-22T04:59:36.209Z,68
2017-03-22T05:00:17.093Z,72
2017-03-22T05:00:57.972Z,76
2017-03-22T05:01:38.859Z,80
2017-03-22T05:02:19.754Z,84
2017-03-22T05:03:00.627Z,92
2017-03-22T05:03:41.505Z,100
2017-03-22T05:04:22.387Z,104
2017-03-22T05:05:03.288Z,112
2017-03-22T05:05:44.157Z,120
2017-03-22T05:06:25.096Z,128
2017-03-22T05:07:05.976Z,136
2017-03-22T05:07:46.845Z,144
2017-03-22T05:08:27.716Z,156
2017-03-22T05:09:08.604Z,176
2017-03-22T05:09:49.502Z,192
2017-03-22T05:10:30.397Z,212
2017-03-22T05:11:11.282Z,240
2017-03-22T05:11:52.164Z,264
2017-03-22T05:12:33.046Z,296
2017-03-22T05:13:13.927Z,328
2017-03-22T05:13:54.810Z,364
2017-03-22T05:14:35.689Z,400
2017-03-22T05:15:16.581Z,440
2017-03-22T05:15:57.454Z,480
2017-03-22T05:16:38.346Z,516
2017-03-22T05:17:19.232Z,556
2017-03-22T05:18:00.114Z,592
2017-03-22T05:18:40.993Z,620
2017-03-22T05:19:21.876Z,652
2017-03-22T05:20:02.762Z,676
2017-03-22T05:20:43.657Z,696
2017-03-22T05:21:24.546Z,724
2017-03-22T05:22:05.437Z,756
2017-03-22T05:22:46.320Z,792
2017-03-22T05:23:27.198Z,828
2017-03-22T05:24:08.080Z,860
2017-03-22T05:24:48.963Z,884
2017-03-22T05:25:29.850Z,904
2017-03-22T05:26:10.731Z,920
2017-03-22T05:26:51.615Z,932
2017-03-22T05:27:32.503Z,944
2017-03-22T05:28:13.386Z,960
2017-03-22T05:28:54.262Z,972
2017-03-22T05:29:35.144Z,992
2017-03-22T05:30:16.033Z,1024
2017-03-22T05:30:56.917Z,1048
2017-03-22T05:31:37.814Z,1064
2017-03-22T05:32:18.702Z,1076
2017-03-22T05:32:59.586Z,1080
2017-03-22T05:33:40.476Z,1080
2017-03-22T05:34:21.356Z,1072
2017-03-22T05:35:02.245Z,1068
2017-03-22T05:35:43.127Z,1064
2017-03-22T05:36:24.015Z,1064
2017-03-22T05:37:04.899Z,1068
2017-03-22T05:37:45.778Z,1080
2017-03-22T05:38:26.664Z,1108
2017-03-22T05:39:07.547Z,1156
2017-03-22T05:39:48.428Z,1188
2017-03-22T05:40:29.324Z,1204
2017-03-22T05:41:10.196Z,1204
2017-03-22T05:41:51.076Z,1208
2017-03-22T05:42:31.960Z,1228
2017-03-22T05:43:12.847Z,1252
2017-03-22T05:43:53.735Z,1272
2017-03-22T05:44:34.624Z,1316
2017-03-22T05:45:15.518Z,1364
2017-03-22T05:45:56.403Z,1416
2017-03-22T05:46:37.285Z,1476
2017-03-22T05:47:18.173Z,1536
2017-03-22T05:47:59.087Z,1592
2017-03-22T05:48:39.971Z,1656
2017-03-22T05:49:20.853Z,1704
2017-03-22T05:50:01.743Z,1756
2017-03-22T05:50:42.629Z,1796
2017-03-22T05:51:23.520Z,1832
2017-03-22T05:52:04.405Z,1880
2017-03-22T05:52:45.295Z,1932
2017-03-22T05:53:26.174Z,1992
2017-03-22T05:54:07.062Z,2044
2017-03-22T05:54:47.949Z,2072
2017-03-22T05:55:28.831Z,2084
2017-03-22T05:56:09.716Z,2116
2017-03-22T05:56:50.595Z,2160
2017-03-22T05:57:31.479Z,2224
2017-03-22T05:58:12.363Z,2272
2017-03-22T05:58:53.260Z,2324
2017-03-22T05:59:34.136Z,2368
2017-03-22T06:00:15.002Z,2396
2017-03-22T06:00:55.882Z,2424
2017-03-22T06:01:36.785Z,2436
2017-03-22T06:02:17.669Z,2420
2017-03-22T06:02:58.554Z,2368
2017-03-22T06:03:39.447Z,2308
2017-03-22T06:04:20.336Z,2272
2017-03-22T06:05:01.211Z,2276
2017-03-22T06:05:42.091Z,2332
2017-03-22T06:06:22.973Z,2420
2017-03-22T06:07:03.856Z,2500
2017-03-22T06:07:44.734Z,2576
2017-03-22T06:08:25.638Z,2652
2017-03-22T06:09:06.530Z,2800
2017-03-22T06:09:47.417Z,2972
2017-03-22T06:10:28.300Z,3088
2017-03-22T06:11:09.164Z,3112
2017-03-22T06:11:50.048Z,3056
2017-03-22T06:12:30.958Z,2968
2017-03-22T06:13:11.829Z,2924
2017-03-22T06:13:52.709Z,2864
2017-03-22T06:14:33.582Z,2816
2017-03-22T06:15:14.455Z,2848
2017-03-22T06:15:55.345Z,2920
2017-03-22T06:16:36.237Z,3008
2017-03-22T06:17:17.168Z,3108
2017-03-22T06:17:58.049Z,3200
2017-03-22T06:18:38.933Z,3276
2017-03-22T06:19:19.816Z,3336
2017-03-22T06:20:00.699Z,3364
2017-03-22T06:20:41.576Z,3312
2017-03-22T06:21:22.466Z,3248
2017-03-22T06:22:03.347Z,3228
2017-03-22T06:22:44.229Z,3216
2017-03-22T06:23:25.105Z,3184
2017-03-22T06:24:05.993Z,3160
2017-03-22T06:24:46.880Z,3176
2017-03-22T06:25:27.765Z,3228
2017-03-22T06:26:08.666Z,3272
2017-03-22T06:26:49.549Z,3276
2017-03-22T06:27:30.450Z,3260
2017-03-22T06:28:11.326Z,3268
2017-03-22T06:28:52.202Z,3248
2017-03-22T06:29:33.085Z,3212
2017-03-22T06:30:13.965Z,3232
2017-03-22T06:30:54.849Z,3304
2017-03-22T06:31:35.735Z,3360
2017-03-22T06:32:16.623Z,3468
2017-03-22T06:32:57.509Z,3536
2017-03-22T06:33:38.385Z,3568
2017-03-22T06:34:19.269Z,3616
2017-03-22T06:36:28.707Z,3696
2017-03-22T06:37:09.630Z,3672
2017-03-22T06:37:50.514Z,3640
2017-03-22T06:38:31.391Z,3616
2017-03-22T06:39:12.269Z,3604
2017-03-22T06:39:53.146Z,3552
2017-03-22T06:40:34.021Z,3476
2017-03-22T06:41:14.911Z,3440
2017-03-22T06:41:55.791Z,3456
2017-03-22T06:42:36.668Z,3464
2017-03-22T06:43:17.542Z,3500
2017-03-22T06:43:58.419Z,3484
2017-03-22T06:44:39.305Z,3448
2017-03-22T06:45:20.182Z,3396
2017-03-22T06:46:01.070Z,3320
2017-03-22T06:46:41.953Z,3244
2017-03-22T06:47:22.834Z,3180
2017-03-22T06:48:03.748Z,3104
2017-03-22T06:48:44.630Z,3056
2017-03-22T06:49:25.514Z,3032
2017-03-22T06:50:06.400Z,3040
2017-03-22T06:50:47.310Z,3088
2017-03-22T06:51:28.181Z,3132
2017-03-22T06:52:09.071Z,3124
2017-03-22T06:52:49.960Z,3116
2017-03-22T06:53:30.841Z,3128
2017-03-22T06:54:11.729Z,3104
2017-03-22T06:54:52.630Z,3060
2017-03-22T06:55:33.511Z,3028
2017-03-22T06:56:14.395Z,3036
2017-03-22T06:56:55.276Z,3092
2017-03-22T06:57:36.163Z,3172
2017-03-22T06:58:17.047Z,3204
2017-03-22T06:58:57.928Z,3212
2017-03-22T06:59:38.813Z,3224
2017-03-22T07:00:19.704Z,3220
2017-03-22T07:01:00.591Z,3172
2017-03-22T07:01:41.471Z,3204
2017-03-22T07:02:22.356Z,3204
2017-03-22T07:03:03.242Z,3128
2017-03-22T07:03:44.117Z,3084
2017-03-22T07:04:24.991Z,2984
2017-03-22T07:05:05.895Z,2876
2017-03-22T07:05:46.782Z,2832
2017-03-22T07:06:27.668Z,2944
2017-03-22T07:07:08.553Z,2936
2017-03-22T07:07:49.434Z,3044
2017-03-22T07:08:30.311Z,3140
2017-03-22T07:09:11.185Z,3256
2017-03-22T07:09:52.066Z,3340
2017-03-22T07:10:32.949Z,3484
2017-03-22T07:11:13.831Z,3564
2017-03-22T07:11:54.709Z,3544
2017-03-22T07:12:35.593Z,3560
2017-03-22T07:13:16.474Z,3572
2017-03-22T07:13:57.367Z,3580
2017-03-22T07:14:38.252Z,3640
2017-03-22T07:15:19.130Z,3788
2017-03-22T07:16:00.015Z,3952
2017-03-22T07:16:40.900Z,4120
2017-03-22T07:17:21.786Z,4292
2017-03-22T07:18:02.669Z,4508
2017-03-22T07:18:43.549Z,4628
2017-03-22T07:19:24.438Z,4772
2017-03-22T07:20:05.318Z,4880
2017-03-22T07:20:46.200Z,4960
2017-03-22T07:21:27.087Z,5056
2017-03-22T07:22:07.971Z,5184
2017-03-22T07:22:48.854Z,5288
2017-03-22T07:23:29.731Z,5404
2017-03-22T07:24:10.641Z,5512
2017-03-22T07:24:51.505Z,5680
2017-03-22T07:25:32.385Z,5860
2017-03-22T07:26:13.267Z,6088
2017-03-22T07:26:54.158Z,6268
2017-03-22T07:27:35.037Z,6480
2017-03-22T07:28:15.947Z,6660
2017-03-22T07:28:56.796Z,6764
2017-03-22T07:29:37.680Z,6808
2017-03-22T07:30:18.577Z,6820
2017-03-22T07:30:59.442Z,6744
2017-03-22T07:31:40.323Z,6604
2017-03-22T07:32:21.213Z,6396
2017-03-22T07:33:02.095Z,6216
2017-03-22T07:33:42.975Z,5968
2017-03-22T07:34:23.860Z,5652
2017-03-22T07:35:04.747Z,5360
2017-03-22T07:35:45.628Z,5036
2017-03-22T07:36:26.512Z,4768
2017-03-22T07:37:07.398Z,4488
2017-03-22T07:37:48.270Z,4376
2017-03-22T07:38:29.155Z,4340
2017-03-22T07:39:10.039Z,4320
2017-03-22T07:39:50.920Z,4336
2017-03-22T07:40:31.807Z,4284
2017-03-22T07:41:12.699Z,4272
2017-03-22T07:41:53.571Z,4176
2017-03-22T07:42:34.457Z,4236
2017-03-22T07:43:15.343Z,4264
2017-03-22T07:43:56.227Z,4276
2017-03-22T07:44:37.112Z,4344
2017-03-22T07:45:17.984Z,4388
2017-03-22T07:45:58.866Z,4436
2017-03-22T07:46:39.761Z,4464
2017-03-22T07:47:20.680Z,4404
2017-03-22T07:48:59.035Z,4384
2017-03-22T07:49:39.912Z,4264
2017-03-22T07:50:20.785Z,4156
2017-03-22T07:51:01.662Z,3932
2017-03-22T07:51:42.538Z,3800
2017-03-22T07:52:23.418Z,3788
2017-03-22T07:53:04.304Z,3884
2017-03-22T07:53:45.185Z,4028
2017-03-22T07:54:26.081Z,4156
2017-03-22T07:55:06.967Z,4256
2017-03-22T07:55:47.850Z,4464
2017-03-22T07:56:28.734Z,4704
2017-03-22T07:57:09.613Z,4996
2017-03-22T07:57:50.498Z,5268
2017-03-22T07:58:31.373Z,5540
2017-03-22T07:59:12.256Z,5744
2017-03-22T07:59:53.142Z,6000
2017-03-22T08:00:34.025Z,6288
2017-03-22T08:01:14.907Z,6472
2017-03-22T08:01:55.786Z,6924
2017-03-22T08:02:36.665Z,7288
2017-03-22T08:03:17.554Z,7484
2017-03-22T08:03:58.432Z,7708
2017-03-22T08:04:39.323Z,7984
2017-03-22T08:05:20.198Z,8116
2017-03-22T08:06:01.089Z,8260
2017-03-22T08:06:41.989Z,8456
2017-03-22T08:07:22.874Z,8640
2017-03-22T08:08:03.767Z,8968
2017-03-22T08:08:44.649Z,9180
2017-03-22T08:09:25.539Z,9384
2017-03-22T08:10:06.426Z,9516
2017-03-22T08:10:47.311Z,9576
2017-03-22T08:11:28.235Z,9792
2017-03-22T08:12:09.109Z,10004
2017-03-22T08:12:49.991Z,10004
2017-03-22T08:13:30.869Z,9944
2017-03-22T08:14:11.765Z,9924
2017-03-22T08:14:52.658Z,9916
2017-03-22T08:15:33.537Z,9900
2017-03-22T08:16:14.433Z,9688
2017-03-22T08:16:55.324Z,9468
2017-03-22T08:17:36.204Z,9368
2017-03-22T08:18:17.102Z,9252
2017-03-22T08:18:57.996Z,8876
2017-03-22T08:19:38.890Z,9164
2017-03-22T08:20:19.782Z,10284
2017-03-22T08:21:00.702Z,19744
2017-03-22T08:21:41.570Z,33088
2017-03-22T08:22:22.453Z,43520
2017-03-22T08:23:03.441Z,48448
2017-03-22T08:23:44.331Z,47328
2017-03-22T08:24:25.223Z,47008
2017-03-22T08:25:06.116Z,48192
2017-03-22T08:25:47.010Z,49120
2017-03-22T08:26:27.921Z,51168
2017-03-22T08:27:08.827Z,52896
2017-03-22T08:27:49.716Z,51520
2017-03-22T08:28:30.608Z,51744
2017-03-22T08:29:11.489Z,53120
2017-03-22T08:29:52.387Z,52704
2017-03-22T08:30:33.292Z,52800
2017-03-22T08:31:14.213Z,51104
2017-03-22T08:31:55.098Z,50720
2017-03-22T08:32:35.994Z,50560
2017-03-22T08:33:16.895Z,49696
2017-03-22T08:33:57.782Z,47104
2017-03-22T08:34:38.679Z,44224
2017-03-22T08:35:19.576Z,42080
2017-03-22T08:36:00.491Z,41824
2017-03-22T08:36:41.388Z,41568
2017-03-22T08:37:22.286Z,43168
2017-03-22T08:38:03.180Z,46976
2017-03-22T08:38:44.085Z,52064
2017-03-22T08:39:25.005Z,58400
2017-03-22T08:40:05.877Z,63136
2017-03-22T08:40:46.773Z,66272
2017-03-22T08:41:27.676Z,66496
2017-03-22T08:42:08.577Z,65696
2017-03-22T08:42:49.472Z,63136
2017-03-22T08:43:30.375Z,58048
2017-03-22T08:44:11.278Z,54144
2017-03-22T08:44:52.172Z,50560
2017-03-22T08:45:33.078Z,47264
2017-03-22T08:46:14.008Z,45152
2017-03-22T08:46:54.875Z,44192
2017-03-22T08:47:35.775Z,49888
2017-03-22T08:48:16.678Z,56416
2017-03-22T08:48:57.576Z,60512
2017-03-22T08:49:38.471Z,62144
2017-03-22T08:50:19.369Z,64608
2017-03-22T08:51:00.271Z,67520
2017-03-22T08:51:41.172Z,67872
2017-03-22T08:52:22.076Z,69856
2017-03-22T08:53:02.974Z,69568
2017-03-22T08:53:43.874Z,68512
2017-03-22T08:54:24.772Z,64544
2017-03-22T08:55:05.681Z,59232
2017-03-22T08:55:46.589Z,56832
2017-03-22T08:56:27.494Z,55232
2017-03-22T08:57:08.398Z,48480
2017-03-22T08:57:49.312Z,48480
2017-03-22T08:58:30.215Z,53152
2017-03-22T08:59:11.112Z,57824
2017-03-22T08:59:52.015Z,62688
2017-03-22T09:00:32.917Z,69152
2017-03-22T09:01:13.831Z,73888
2017-03-22T09:01:54.735Z,75904
2017-03-22T09:02:35.650Z,76576
2017-03-22T09:03:16.553Z,71360
2017-03-22T09:03:57.455Z,14936
2017-03-22T09:04:38.352Z,8568
2017-03-22T09:05:19.261Z,9404
2017-03-22T09:06:00.168Z,11748
2017-03-22T09:06:41.079Z,25824
2017-03-22T09:07:21.978Z,31392
2017-03-22T09:08:02.877Z,16448
2017-03-22T09:08:43.780Z,14368
2017-03-22T09:09:24.670Z,13636
2017-03-22T09:10:05.570Z,13624
2017-03-22T09:10:46.478Z,13144
2017-03-22T09:11:27.370Z,13244
2017-03-22T09:12:08.274Z,13444
2017-03-22T09:12:49.179Z,13600
2017-03-22T09:13:30.081Z,13980
2017-03-22T09:14:10.975Z,22944
2017-03-22T09:14:51.880Z,26144
2017-03-22T09:15:32.772Z,23104
2017-03-22T09:16:13.673Z,17696
2017-03-22T09:16:54.575Z,16256
2017-03-22T09:17:35.468Z,25984
2017-03-22T09:18:16.370Z,33632
2017-03-22T09:18:57.260Z,46944
2017-03-22T09:19:38.162Z,47168
2017-03-22T09:20:19.067Z,53472
2017-03-22T09:20:59.966Z,32448
2017-03-22T09:21:40.871Z,14024
2017-03-22T09:22:21.808Z,56192
2017-03-22T09:23:02.715Z,60640
2017-03-22T09:23:43.621Z,62176
2017-03-22T09:24:24.518Z,57184
2017-03-22T09:25:05.419Z,55232
2017-03-22T09:25:46.306Z,60512
2017-03-22T09:26:27.209Z,60224
2017-03-22T09:27:08.109Z,64384
2017-03-22T09:27:49.014Z,65888
2017-03-22T09:28:29.916Z,66336
2017-03-22T09:29:10.818Z,64064
2017-03-22T09:29:51.725Z,63808
2017-03-22T09:30:32.625Z,58656
2017-03-22T09:31:13.529Z,54048
2017-03-22T09:31:54.428Z,58048
2017-03-22T09:32:35.370Z,66432
2017-03-22T09:33:16.273Z,67776
2017-03-22T09:33:57.183Z,69056
2017-03-22T09:34:38.086Z,66944